ADDS TAF Data INFO
IDs: Format: Raw Decoded Include METARs

Data at: 2318 UTC 05 Jul 2015

Region: TOP
KATL 052155Z 0522/0624 24009G15KT P6SM SCT040 BKN120
  FM060000 21006KT P6SM SCT040 BKN100
  FM060800 24003KT 6SM BR BKN012
  FM061000 25003KT 4SM BR BKN007
  FM061500 28005KT P6SM BKN012
  FM061700 24005KT P6SM BKN040
  PROB30 0617/0623 5SM TSRA BKN025CB


KBOS 052019Z 0520/0624 28008KT P6SM SCT060
  FM060500 24004KT P6SM FEW250
  FM061600 10004KT P6SM FEW250


KBWI 052058Z 0521/0624 13005KT P6SM SCT030 BKN050
  FM061000 VRB03KT 5SM -SHRA BKN030
  FM061400 10006KT P6SM BKN040
  FM061900 13007KT P6SM -SHRA VCTS BKN040CB


KCLE 051729Z 0518/0624 02008KT P6SM BKN250
  FM060300 14004KT P6SM BKN200
  FM060900 15002KT 6SM BR SCT250
  FM061400 VRB04KT P6SM SCT040 BKN100
  FM061900 32006KT P6SM VCSH BKN100


KCLT 052059Z 0521/0618 20007KT P6SM VCSH SCT070 BKN110
  FM060100 20006KT P6SM SCT050 BKN150
  FM060900 23005KT P6SM FEW020 SCT150
  FM061400 23007KT P6SM SCT040


KCVG 051720Z 0518/0624 10005KT P6SM BKN150 OVC250
  FM060100 VRB03KT P6SM FEW040 SCT150 BKN250
  FM061300 21006KT P6SM SCT040


KDCA 052058Z 0521/0618 15006KT P6SM SCT030 BKN040
  FM060700 VRB03KT P6SM VCSH SCT020 BKN060
  FM061000 09006KT 5SM -SHRA BKN020
  FM061400 12007KT P6SM BKN040


KDEN 052235Z 0523/0624 34020G30KT P6SM VCTS SCT080CB BKN120
  TEMPO 0523/0602 VRB20G40KT -TSRA BKN070CB
  FM060200 36010KT P6SM VCSH SCT080 BKN120
  FM060500 01012G18KT P6SM SCT080 BKN120
  FM060900 02012KT P6SM VCSH BKN015 OVC040
  PROB30 0609/0615 -SHRA
  FM061500 03010KT P6SM VCSH BKN020
  PROB30 0615/0619 -SHRA
  FM061900 04007KT P6SM VCTS BKN025CB


KDFW 051725Z 0518/0624 19015KT P6SM FEW035 SCT250
  FM061100 18015KT P6SM BKN015
  FM061500 18019KT P6SM BKN025
  FM061700 18022KT P6SM SCT040


KDTW 052103Z 0521/0624 15008KT P6SM BKN250
  FM060100 VRB03KT P6SM SCT250
  FM060800 VRB03KT 5SM HZ SCT250
  FM061200 18007KT P6SM SCT250


KEWR 052204Z 0522/0624 26006KT P6SM FEW060 BKN250
  FM052300 16005KT P6SM FEW060
  FM060100 21005KT P6SM FEW060
  FM060700 23004KT 6SM BR SCT006 SCT250
  FM061300 16006KT P6SM SCT040 BKN250
  FM061800 15010KT P6SM SCT080 BKN250


KFLL 052107Z 0521/0618 15012KT P6SM FEW030 FEW250
  FM060200 13006KT P6SM FEW025 SCT200
  FM061400 12011KT P6SM SCT030


KIAD 052058Z 0521/0624 14005KT P6SM SCT030 OVC050
  FM060500 VRB03KT 5SM BR VCSH SCT020 BKN060
  FM060900 VRB03KT 3SM -SHRA SCT007 BKN025
  FM061300 14006KT P6SM BKN040
  FM061900 15007KT P6SM -SHRA VCTS BKN050CB


KIAH 052054Z 0521/0624 17010G18KT P6SM FEW050 SCT250
  FM060200 16007KT P6SM SCT020 SCT250
  FM061500 17013KT P6SM SCT030 SCT250


KJFK 051932Z 0520/0624 18013KT P6SM FEW040
  FM060200 20006KT P6SM FEW060
  FM060700 20004KT 6SM BR FEW006 SCT250
  FM061300 17007KT P6SM FEW040 BKN250
  FM061700 17013KT P6SM SCT080 BKN250


KLAS 052237Z 0523/0618 24015G20KT P6SM VCTS SCT080CB SCT120 BKN200
  FM060000 21014KT P6SM SCT120 BKN200
  FM060300 20010KT P6SM FEW150 SCT200


KLAX 052050Z 0521/0624 24008KT P6SM BKN025
  FM052130 26014KT P6SM SCT025
  FM060200 25008KT P6SM OVC015
  FM060700 VRB03KT P6SM OVC012
  FM061600 27007KT P6SM OVC018
  FM062000 26012KT P6SM SCT020


KLGA 051932Z 0520/0618 27006KT P6SM SCT040
  FM052030 18010KT P6SM SCT040
  FM060100 20006KT P6SM FEW060
  FM060700 20004KT 6SM BR FEW006 SCT250
  FM061300 17007KT P6SM FEW040 BKN250


KMCO 052111Z 0521/0618 18010KT P6SM VCTS SCT040CB BKN080
  TEMPO 0521/0523 VRB20G32KT 2SM +TSRA BKN020CB OVC040
  FM060300 12005KT P6SM SCT050 OVC120
  FM060600 00000KT P6SM SCT120 BKN250


KMDW 052158Z 0522/0618 18009KT P6SM FEW050
  FM052300 18005KT P6SM FEW250
  FM061500 19012KT P6SM FEW025


KMEM 052056Z 0521/0618 22008KT P6SM SCT025 BKN035
  FM060000 20005KT P6SM SCT025
  TEMPO 0611/0613 6SM BR BKN006
  FM061400 20005KT P6SM SCT015
  FM061600 22008KT P6SM SCT025 BKN035


KMIA 052107Z 0521/0618 13010KT P6SM SCT035
  FM060200 13006KT P6SM FEW025 SCT200
  FM061400 12011KT P6SM SCT030


KMSP 052047Z 0521/0624 17015G21KT P6SM FEW060 SCT150
  FM060200 16012G18KT P6SM SCT050 OVC120
  FM060600 15012KT 5SM -SHRA OVC045
  TEMPO 0606/0610 2SM TSRA BKN015CB OVC035
  FM061200 16008KT 4SM SHRA BR VCTS BKN015CB OVC030
  FM061400 31011KT 6SM -SHRA SCT015 OVC030
  FM061800 33013G20KT P6SM SCT025 BKN040


KORD 052158Z 0522/0624 16009KT P6SM FEW050
  FM052300 18005KT P6SM FEW250
  FM061500 18012KT P6SM FEW025
  FM061900 20015G25KT P6SM SCT050 BKN250


KPDX 051733Z 0518/0618 31005KT P6SM FEW250
  FM052100 29007KT P6SM FEW250
  FM060700 28003KT P6SM FEW250


KPHL 052101Z 0521/0624 19006KT P6SM FEW040 SCT250
  FM060100 18004KT P6SM SCT250
  FM060600 VRB03KT P6SM OVC060
  FM061200 13006KT P6SM OVC060
  FM061700 13007KT P6SM OVC100


KPHX 052226Z 0522/0618 27009KT P6SM SCT090 SCT140 BKN200
  TEMPO 0522/0524 19016G22KT
  FM061000 09006KT P6SM SCT100 BKN250


KPIT 052054Z 0521/0624 09005KT P6SM FEW050 OVC250
  TEMPO 0608/0612 4SM BR
  FM061200 13004KT P6SM VCSH BKN050
  FM061800 19006KT 6SM -SHRA VCTS BKN035CB OVC050


KSAN 052047Z 0521/0624 29010KT P6SM BKN016 OVC023
  FM060200 VRB04KT P6SM OVC016
  FM061800 29010KT P6SM BKN020
  FM062000 29010KT P6SM SCT020


KSEA 052101Z 0521/0624 34010KT P6SM BKN200
  FM060300 31006KT P6SM SCT200
  FM061200 20004KT P6SM FEW200


KSFO 052059Z 0521/0624 24010KT P6SM FEW010 SCT200
  FM052200 25015G21KT P6SM FEW010 SCT250
  FM060500 27009KT P6SM BKN010
  FM060700 28007KT P6SM OVC010
  FM061700 27008KT P6SM FEW010
  FM062100 27016G22KT P6SM FEW010


KSLC 052056Z 0521/0624 32008KT P6SM SCT080 SCT200
  FM060300 15006KT P6SM FEW120
  FM061800 32008KT P6SM SCT090 BKN200


KSTL 052105Z 0521/0624 16007KT P6SM SCT050
  FM060400 13004KT 5SM HZ SCT080
  FM061300 18008KT P6SM SCT035 SCT250


KTPA 052257Z 0523/0618 27011KT P6SM VCTS SCT040CB BKN250
  TEMPO 0523/0524 VRB15G25KT 3SM TSRA SCT010 BKN025CB
  FM060000 33004KT P6SM SCT040 BKN250
  FM060300 07002KT P6SM FEW040 BKN250
  FM061400 21006KT P6SM SCT035